createdAt,value
2019-05-17T00:00:01.980Z,13.10
2019-05-17T00:02:37.145Z,13.80
2019-05-17T00:05:08.578Z,15.23
2019-05-17T00:07:39.914Z,13.07
2019-05-17T00:10:12.185Z,13.67
2019-05-17T00:12:43.497Z,13.60
2019-05-17T00:15:16.977Z,14.87
2019-05-17T00:17:48.180Z,15.20
2019-05-17T00:20:20.927Z,14.67
2019-05-17T00:22:52.214Z,15.00
2019-05-17T00:25:23.675Z,16.03
2019-05-17T00:27:56.393Z,15.37
2019-05-17T00:30:27.996Z,16.13
2019-05-17T00:32:59.406Z,16.17
2019-05-17T00:35:30.871Z,15.80
2019-05-17T00:38:02.346Z,16.27
2019-05-17T00:40:36.321Z,17.53
2019-05-17T00:43:07.027Z,16.90
2019-05-17T00:45:38.642Z,16.57
2019-05-17T00:48:10.061Z,17.50
2019-05-17T00:50:41.650Z,13.67
2019-05-17T00:53:13.062Z,14.87
2019-05-17T00:55:46.559Z,16.10
2019-05-17T00:58:17.675Z,14.60
2019-05-17T01:00:50.521Z,14.23
2019-05-17T01:03:21.883Z,14.80
2019-05-17T01:05:53.601Z,13.40
2019-05-17T01:08:26.540Z,13.07
2019-05-17T01:10:57.839Z,13.33
2019-05-17T01:13:29.793Z,11.47
2019-05-17T01:16:01.666Z,12.13
2019-05-17T01:18:33.118Z,12.57
2019-05-17T01:21:06.412Z,12.77
2019-05-17T01:23:37.601Z,12.83
2019-05-17T01:26:09.083Z,13.40
2019-05-17T01:28:40.484Z,14.40
2019-05-17T01:31:11.951Z,13.87
2019-05-17T01:33:43.301Z,12.17
2019-05-17T01:36:17.143Z,13.07
2019-05-17T01:38:47.538Z,13.67
2019-05-17T01:41:18.908Z,13.13
2019-05-17T01:43:50.331Z,13.43
2019-05-17T01:46:21.736Z,13.43
2019-05-17T01:48:53.165Z,14.60
2019-05-17T01:51:26.339Z,14.30
2019-05-17T01:53:57.624Z,14.33
2019-05-17T01:56:28.962Z,17.00
2019-05-17T01:59:00.336Z,16.37
2019-05-17T02:01:31.710Z,16.73
2019-05-17T02:04:03.095Z,16.67
2019-05-17T02:06:36.541Z,16.83
2019-05-17T02:09:08.078Z,17.30
2019-05-17T02:11:39.463Z,17.77
2019-05-17T02:14:10.894Z,17.30
2019-05-17T02:16:42.293Z,18.23
2019-05-17T02:19:13.751Z,17.20
2019-05-17T02:21:47.426Z,18.57
2019-05-17T02:24:18.198Z,17.27
2019-05-17T02:26:49.515Z,17.90
2019-05-17T02:29:21.450Z,16.67
2019-05-17T02:31:53.089Z,17.80
2019-05-17T02:34:24.454Z,18.53
2019-05-17T02:36:55.772Z,17.93
2019-05-17T02:39:27.484Z,17.87
2019-05-17T02:41:58.867Z,19.00
2019-05-17T02:44:33.179Z,18.13
2019-05-17T02:47:03.405Z,18.80
2019-05-17T02:49:34.947Z,15.43
2019-05-17T02:52:06.287Z,17.63
2019-05-17T02:54:37.699Z,16.60
2019-05-17T02:57:09.064Z,15.80
2019-05-17T02:59:43.306Z,14.07
2019-05-17T03:02:13.975Z,16.60
2019-05-17T03:04:45.567Z,15.00
2019-05-17T03:07:16.922Z,15.33
2019-05-17T03:09:48.274Z,13.93
2019-05-17T03:12:19.743Z,13.90
2019-05-17T03:14:52.896Z,15.43
2019-05-17T03:17:24.174Z,13.27
2019-05-17T03:19:55.513Z,13.17
2019-05-17T03:22:26.810Z,13.20
2019-05-17T03:24:58.227Z,14.40
2019-05-17T03:27:29.544Z,13.27
2019-05-17T03:30:04.246Z,13.50
2019-05-17T03:32:36.107Z,13.93
2019-05-17T03:35:08.172Z,14.23
2019-05-17T03:37:39.597Z,13.87
2019-05-17T03:40:27.509Z,12.40
2019-05-17T03:42:46.135Z,12.77
2019-05-17T03:45:17.732Z,13.37
2019-05-17T03:47:52.987Z,12.37
2019-05-17T03:50:22.825Z,12.97
2019-05-17T03:52:54.372Z,12.33
2019-05-17T03:55:25.869Z,13.60
2019-05-17T03:57:57.305Z,12.67
2019-05-17T04:00:28.727Z,12.27
2019-05-17T04:03:03.016Z,10.87
2019-05-17T04:05:33.773Z,10.70
2019-05-17T04:08:05.439Z,10.97
2019-05-17T04:10:36.802Z,11.73
2019-05-17T04:13:08.142Z,10.90
2019-05-17T04:15:43.354Z,12.83
2019-05-17T04:18:13.866Z,12.47
2019-05-17T04:20:45.732Z,12.10
2019-05-17T04:23:17.168Z,12.43
2019-05-17T04:25:48.646Z,12.00
2019-05-17T04:28:22.904Z,11.60
2019-05-17T04:30:53.221Z,11.47
2019-05-17T04:33:24.671Z,11.57
2019-05-17T04:35:57.126Z,10.57
2019-05-17T04:38:28.587Z,10.87
2019-05-17T04:41:03.082Z,10.43
2019-05-17T04:43:33.641Z,9.97
2019-05-17T04:46:05.112Z,9.57
2019-05-17T04:48:36.443Z,10.50
2019-05-17T04:51:07.809Z,10.33
2019-05-17T04:53:39.299Z,8.87
2019-05-17T04:56:13.708Z,8.97
2019-05-17T04:58:43.915Z,9.53
2019-05-17T05:01:15.779Z,8.20
2019-05-17T05:03:47.249Z,9.07
2019-05-17T05:06:18.572Z,10.00
2019-05-17T05:08:52.726Z,9.00
2019-05-17T05:11:23.487Z,9.63
2019-05-17T05:13:55.149Z,10.40
2019-05-17T05:16:26.516Z,12.43
2019-05-17T05:18:57.979Z,12.40
2019-05-17T05:21:32.072Z,11.20
2019-05-17T05:24:02.660Z,16.10
2019-05-17T05:26:34.073Z,22.83
2019-05-17T05:29:05.980Z,25.80
2019-05-17T05:31:37.424Z,28.20
2019-05-17T05:34:09.017Z,20.47
2019-05-17T05:36:41.913Z,14.37
2019-05-17T05:39:14.643Z,12.87
2019-05-17T05:41:46.121Z,11.27
2019-05-17T05:44:17.499Z,11.77
2019-05-17T05:46:48.894Z,11.80
2019-05-17T05:49:21.687Z,11.87
2019-05-17T05:51:53.369Z,12.50
2019-05-17T05:54:25.140Z,12.83
2019-05-17T05:56:56.487Z,14.07
2019-05-17T05:59:28.027Z,13.37
2019-05-17T06:02:01.621Z,15.53
2019-05-17T06:04:32.541Z,16.80
2019-05-17T06:07:03.910Z,16.47
2019-05-17T06:09:35.362Z,17.67
2019-05-17T06:12:18.979Z,17.40
2019-05-17T06:14:41.710Z,17.07
2019-05-17T06:17:13.170Z,17.63
2019-05-17T06:19:44.692Z,18.43
2019-05-17T06:22:15.970Z,19.47
2019-05-17T06:24:47.367Z,19.37
2019-05-17T06:27:18.801Z,20.03
2019-05-17T06:29:51.559Z,19.93
2019-05-17T06:32:23.160Z,19.73
2019-05-17T06:34:55.086Z,20.93
2019-05-17T06:37:32.944Z,19.43
2019-05-17T06:40:04.782Z,19.63
2019-05-17T06:42:41.103Z,17.97
2019-05-17T06:45:12.227Z,18.27
2019-05-17T06:47:43.028Z,16.40
2019-05-17T06:50:15.951Z,17.43
2019-05-17T06:52:47.735Z,17.40
2019-05-17T06:55:19.094Z,19.70
2019-05-17T06:57:52.659Z,21.17
2019-05-17T07:00:24.032Z,22.37
2019-05-17T07:02:56.031Z,26.20
2019-05-17T07:05:30.713Z,26.27
2019-05-17T07:08:02.176Z,29.07
2019-05-17T07:10:33.519Z,28.73
2019-05-17T07:13:04.935Z,27.70
2019-05-17T07:15:46.786Z,27.03
2019-05-17T07:18:10.235Z,28.03
2019-05-17T07:20:41.961Z,27.60
2019-05-17T07:23:13.419Z,28.23
2019-05-17T07:25:44.752Z,29.27
2019-05-17T07:28:16.326Z,26.57
2019-05-17T07:30:50.178Z,26.17
2019-05-17T07:33:20.740Z,27.07
2019-05-17T07:35:52.117Z,27.63
2019-05-17T07:38:23.612Z,31.20
2019-05-17T07:40:55.148Z,25.93
2019-05-17T07:43:26.879Z,26.70
2019-05-17T07:46:00.315Z,22.63
2019-05-17T07:48:31.626Z,29.63
2019-05-17T07:51:03.338Z,13.93
2019-05-17T07:53:34.797Z,14.30
2019-05-17T07:56:06.531Z,14.53
2019-05-17T07:58:40.260Z,12.70
2019-05-17T08:01:10.907Z,10.53
2019-05-17T08:03:42.213Z,8.70
2019-05-17T08:06:13.596Z,7.33
2019-05-17T08:08:44.936Z,7.00
2019-05-17T08:11:16.372Z,8.50
2019-05-17T08:13:50.281Z,7.03
2019-05-17T08:16:20.822Z,7.10
2019-05-17T08:18:52.292Z,6.23
2019-05-17T08:21:23.823Z,6.27
2019-05-17T08:23:55.476Z,5.90
2019-05-17T08:26:29.170Z,6.50
2019-05-17T08:29:00.823Z,6.17
2019-05-17T08:31:32.745Z,6.30
2019-05-17T08:34:05.370Z,6.50
2019-05-17T08:36:36.744Z,6.13
2019-05-17T08:39:10.251Z,6.20
2019-05-17T08:41:41.936Z,6.97
2019-05-17T08:44:13.316Z,7.10
2019-05-17T08:46:44.797Z,7.20
2019-05-17T08:49:16.540Z,8.07
2019-05-17T08:51:50.000Z,8.60
2019-05-17T08:54:21.278Z,10.00
2019-05-17T08:56:52.754Z,10.40
2019-05-17T08:59:24.246Z,10.27
2019-05-17T09:01:55.643Z,10.13
2019-05-17T09:04:29.353Z,9.93
2019-05-17T09:07:03.021Z,11.13
2019-05-17T09:09:33.490Z,9.83
2019-05-17T09:12:05.357Z,11.23
2019-05-17T09:14:37.049Z,10.13
2019-05-17T09:17:10.249Z,11.13
2019-05-17T09:19:42.287Z,10.97
2019-05-17T09:22:13.926Z,10.60
2019-05-17T09:24:45.627Z,10.93
2019-05-17T09:27:19.588Z,11.33
2019-05-17T09:29:50.454Z,10.70
2019-05-17T09:32:22.198Z,11.67
2019-05-17T09:34:53.643Z,11.23
2019-05-17T09:37:25.588Z,11.57
2019-05-17T09:39:59.682Z,11.57
2019-05-17T09:42:30.655Z,12.00
2019-05-17T09:45:02.061Z,11.23
2019-05-17T09:47:34.914Z,11.60
2019-05-17T09:50:09.665Z,11.50
2019-05-17T09:52:41.290Z,12.23
2019-05-17T09:55:13.297Z,12.83
2019-05-17T09:57:45.021Z,12.40
2019-05-17T10:00:17.548Z,11.93
2019-05-17T10:02:50.859Z,12.67
2019-05-17T10:05:22.957Z,12.70
2019-05-17T10:07:54.755Z,12.93
2019-05-17T10:10:26.477Z,13.13
2019-05-17T10:13:00.112Z,12.97
2019-05-17T10:15:31.429Z,13.67
2019-05-17T10:18:03.056Z,12.93
2019-05-17T10:20:34.505Z,12.23
2019-05-17T10:23:05.889Z,12.73
2019-05-17T10:25:39.798Z,11.27
2019-05-17T10:28:10.850Z,11.37
2019-05-17T10:30:42.595Z,10.33
2019-05-17T10:33:14.438Z,11.57
2019-05-17T10:35:45.825Z,10.67
2019-05-17T10:38:19.353Z,10.70
2019-05-17T10:40:50.319Z,10.37
2019-05-17T10:43:22.896Z,10.43
2019-05-17T10:45:54.597Z,9.63
2019-05-17T10:48:26.002Z,10.33
2019-05-17T10:50:57.498Z,10.87
2019-05-17T10:53:29.710Z,10.10
2019-05-17T10:56:01.626Z,10.23
2019-05-17T10:58:32.959Z,10.80
2019-05-17T11:01:04.465Z,10.70
2019-05-17T11:03:35.841Z,10.77
2019-05-17T11:06:07.159Z,10.10
2019-05-17T11:08:38.687Z,10.77
2019-05-17T11:11:10.288Z,9.80
2019-05-17T11:13:41.894Z,8.83
2019-05-17T11:16:13.731Z,8.23
2019-05-17T11:18:45.312Z,8.20
2019-05-17T11:21:17.156Z,7.20
2019-05-17T11:23:49.031Z,7.03
2019-05-17T11:26:21.258Z,7.10
2019-05-17T11:28:52.956Z,7.13
2019-05-17T11:31:24.525Z,7.57
2019-05-17T11:33:56.624Z,6.50
2019-05-17T11:36:28.377Z,6.97
2019-05-17T11:38:59.667Z,6.80
2019-05-17T11:41:31.371Z,7.60
2019-05-17T11:44:02.850Z,6.27
2019-05-17T11:46:36.520Z,6.30
2019-05-17T11:49:08.257Z,6.40
2019-05-17T11:51:40.023Z,6.50
2019-05-17T11:54:11.718Z,6.20
2019-05-17T11:56:44.865Z,5.97
2019-05-17T11:59:16.166Z,6.20
2019-05-17T12:01:47.993Z,6.50
2019-05-17T12:04:19.288Z,7.07
2019-05-17T12:06:50.988Z,6.47
2019-05-17T12:09:36.215Z,6.77
2019-05-17T12:11:55.368Z,6.43
2019-05-17T12:14:27.739Z,6.90
2019-05-17T12:16:59.126Z,6.83
2019-05-17T12:19:30.521Z,8.07
2019-05-17T12:22:01.882Z,7.87
2019-05-17T12:24:33.304Z,8.30
2019-05-17T12:27:05.208Z,8.80
2019-05-17T12:29:36.934Z,8.20
2019-05-17T12:32:08.693Z,8.20
2019-05-17T12:34:39.982Z,8.97
2019-05-17T12:37:11.450Z,8.47
2019-05-17T12:39:43.330Z,8.70
2019-05-17T12:42:14.792Z,9.00
2019-05-17T12:44:46.362Z,8.33
2019-05-17T12:47:17.719Z,8.20
2019-05-17T12:49:49.598Z,8.83
2019-05-17T12:52:21.679Z,8.83
2019-05-17T12:54:53.107Z,8.67
2019-05-17T12:57:25.025Z,8.87
2019-05-17T12:59:56.793Z,9.33
2019-05-17T13:02:28.577Z,9.97
2019-05-17T13:05:00.398Z,9.13
2019-05-17T13:07:32.242Z,9.20
2019-05-17T13:10:03.958Z,9.70
2019-05-17T13:12:35.370Z,8.83
2019-05-17T13:15:08.029Z,8.50
2019-05-17T13:17:39.648Z,6.97
2019-05-17T13:20:11.952Z,6.00
2019-05-17T13:22:43.372Z,5.30
2019-05-17T13:25:15.398Z,6.43
2019-05-17T13:27:46.988Z,6.43
2019-05-17T13:30:19.017Z,6.27
2019-05-17T13:32:50.863Z,6.33
2019-05-17T13:35:22.833Z,6.17
2019-05-17T13:37:54.603Z,5.80
2019-05-17T13:40:26.346Z,5.20
2019-05-17T13:42:57.941Z,5.60
2019-05-17T13:45:30.441Z,5.93
2019-05-17T13:48:02.115Z,5.47
2019-05-17T13:50:33.409Z,5.60
2019-05-17T13:53:06.629Z,5.53
2019-05-17T13:55:38.406Z,5.47
2019-05-17T13:58:10.274Z,5.10
2019-05-17T14:00:42.034Z,3.97
2019-05-17T14:03:13.900Z,3.23
2019-05-17T14:05:45.618Z,3.60
2019-05-17T14:08:17.363Z,3.90
2019-05-17T14:10:49.241Z,3.90
2019-05-17T14:13:21.114Z,4.47
2019-05-17T14:15:52.939Z,4.40
2019-05-17T14:18:24.414Z,4.40
2019-05-17T14:20:56.598Z,4.23
2019-05-17T14:23:28.172Z,3.67
2019-05-17T14:26:00.053Z,3.87
2019-05-17T14:28:31.784Z,3.40
2019-05-17T14:31:03.552Z,4.07
2019-05-17T14:33:35.030Z,3.90
2019-05-17T14:36:06.304Z,4.10
2019-05-17T14:38:38.111Z,4.63
2019-05-17T14:41:10.030Z,4.60
2019-05-17T14:43:41.915Z,4.30
2019-05-17T14:46:13.698Z,3.50
2019-05-17T14:48:45.186Z,3.77
2019-05-17T14:51:16.934Z,4.23
2019-05-17T14:53:48.307Z,3.73
2019-05-17T14:56:19.643Z,4.00
2019-05-17T14:58:51.158Z,3.93
2019-05-17T15:01:22.589Z,3.57
2019-05-17T15:03:53.887Z,2.87
2019-05-17T15:06:25.242Z,2.93
2019-05-17T15:08:56.897Z,2.93
2019-05-17T15:11:28.846Z,2.93
2019-05-17T15:14:00.149Z,2.67
2019-05-17T15:16:31.649Z,2.60
2019-05-17T15:19:03.079Z,2.73
2019-05-17T15:21:34.525Z,2.80
2019-05-17T15:24:05.930Z,2.60
2019-05-17T15:26:37.468Z,2.50
2019-05-17T15:29:09.289Z,2.70
2019-05-17T15:31:40.777Z,2.87
2019-05-17T15:34:12.685Z,2.77
2019-05-17T15:36:44.193Z,3.00
2019-05-17T15:39:15.631Z,3.00
2019-05-17T15:41:47.218Z,2.83
2019-05-17T15:44:18.898Z,2.80
2019-05-17T15:46:50.600Z,3.20
2019-05-17T15:49:22.472Z,3.50
2019-05-17T15:51:54.007Z,3.67
2019-05-17T15:54:25.519Z,3.40
2019-05-17T15:56:57.217Z,3.40
2019-05-17T15:59:29.106Z,3.70
2019-05-17T16:02:00.528Z,3.27
2019-05-17T16:04:31.907Z,3.23
2019-05-17T16:07:03.361Z,3.73
2019-05-17T16:09:34.710Z,3.70
2019-05-17T16:12:06.301Z,3.50
2019-05-17T16:14:37.886Z,3.73
2019-05-17T16:17:09.554Z,3.47
2019-05-17T16:19:41.294Z,3.83
2019-05-17T16:22:12.620Z,3.50
2019-05-17T16:24:43.903Z,3.73
2019-05-17T16:27:15.612Z,3.47
2019-05-17T16:29:46.948Z,4.03
2019-05-17T16:32:18.277Z,3.70
2019-05-17T16:34:49.642Z,3.93
2019-05-17T16:37:21.032Z,4.20
2019-05-17T16:39:52.846Z,4.40
2019-05-17T16:42:24.556Z,3.97
2019-05-17T16:44:56.250Z,4.97
2019-05-17T16:47:27.597Z,4.53
2019-05-17T16:49:59.150Z,4.57
2019-05-17T16:52:30.462Z,3.80
2019-05-17T16:55:01.985Z,4.10
2019-05-17T16:57:33.834Z,4.17
2019-05-17T17:00:05.875Z,4.40
2019-05-17T17:02:37.283Z,4.70
2019-05-17T17:05:09.072Z,4.80
2019-05-17T17:07:40.561Z,4.37
2019-05-17T17:10:12.658Z,4.37
2019-05-17T17:12:44.163Z,5.00
2019-05-17T17:15:16.638Z,4.80
2019-05-17T17:17:48.269Z,4.30
2019-05-17T17:20:20.394Z,4.77
2019-05-17T17:22:51.797Z,4.07
2019-05-17T17:25:23.320Z,4.83
2019-05-17T17:27:54.828Z,4.03
2019-05-17T17:30:26.776Z,4.77
2019-05-17T17:32:58.436Z,4.23
2019-05-17T17:35:29.791Z,4.57
2019-05-17T17:38:01.443Z,4.70
2019-05-17T17:40:32.900Z,4.57
2019-05-17T17:43:04.361Z,4.30
2019-05-17T17:45:36.241Z,4.43
2019-05-17T17:48:07.862Z,5.87
2019-05-17T17:50:39.463Z,5.23
2019-05-17T17:53:11.527Z,5.20
2019-05-17T17:55:43.360Z,4.73
2019-05-17T17:58:14.859Z,5.80
2019-05-17T18:00:46.473Z,6.30
2019-05-17T18:03:19.416Z,5.90
2019-05-17T18:05:50.939Z,6.17
2019-05-17T18:08:23.486Z,6.90
2019-05-17T18:10:54.884Z,5.93
2019-05-17T18:13:26.585Z,5.97
2019-05-17T18:15:58.324Z,7.37
2019-05-17T18:18:29.719Z,6.97
2019-05-17T18:21:01.357Z,7.37
2019-05-17T18:23:33.042Z,7.07
2019-05-17T18:26:04.893Z,7.33
2019-05-17T18:28:36.686Z,6.87
2019-05-17T18:31:08.234Z,6.93
2019-05-17T18:33:39.597Z,6.73
2019-05-17T18:36:10.913Z,7.00
2019-05-17T18:38:44.086Z,7.77
2019-05-17T18:41:15.634Z,6.97
2019-05-17T18:43:47.458Z,7.07
2019-05-17T18:46:18.847Z,6.80
2019-05-17T18:48:51.355Z,5.73
2019-05-17T18:51:22.765Z,6.10
2019-05-17T18:53:55.057Z,5.60
2019-05-17T18:56:26.362Z,5.90
2019-05-17T18:58:57.772Z,6.20
2019-05-17T19:01:29.333Z,6.03
2019-05-17T19:04:00.719Z,7.63
2019-05-17T19:06:32.508Z,8.10
2019-05-17T19:09:06.640Z,8.17
2019-05-17T19:11:38.046Z,8.00
2019-05-17T19:14:09.455Z,8.00
2019-05-17T19:16:41.297Z,7.97
2019-05-17T19:19:12.711Z,7.50
2019-05-17T19:21:44.329Z,8.30
2019-05-17T19:24:15.845Z,7.57
2019-05-17T19:26:47.513Z,7.43
2019-05-17T19:29:19.232Z,8.60
2019-05-17T19:31:50.601Z,8.33
2019-05-17T19:34:21.968Z,7.70
2019-05-17T19:36:53.352Z,7.40
2019-05-17T19:39:24.876Z,6.77
2019-05-17T19:41:56.656Z,6.50
2019-05-17T19:44:28.462Z,6.47
2019-05-17T19:46:59.806Z,6.87
2019-05-17T19:49:31.257Z,7.20
2019-05-17T19:52:02.579Z,7.23
2019-05-17T19:54:33.901Z,11.83
2019-05-17T19:57:05.303Z,8.13
2019-05-17T19:59:36.907Z,8.83
2019-05-17T20:02:08.379Z,8.43
2019-05-17T20:04:39.802Z,7.73
2019-05-17T20:07:11.250Z,6.73
2019-05-17T20:09:42.724Z,6.60
2019-05-17T20:12:14.573Z,6.93
2019-05-17T20:14:46.071Z,7.23
2019-05-17T20:17:17.485Z,7.33
2019-05-17T20:19:49.048Z,6.83
2019-05-17T20:22:20.459Z,7.20
2019-05-17T20:24:52.363Z,6.83
2019-05-17T20:27:23.772Z,10.70
2019-05-17T20:29:55.274Z,11.37
2019-05-17T20:32:26.780Z,11.00
2019-05-17T20:34:58.366Z,10.63
2019-05-17T20:37:29.733Z,10.73
2019-05-17T20:40:01.048Z,9.77
2019-05-17T20:42:32.491Z,9.60
2019-05-17T20:45:04.271Z,10.57
2019-05-17T20:47:36.191Z,11.33
2019-05-17T20:50:08.432Z,11.77
2019-05-17T20:52:39.788Z,9.67
2019-05-17T20:55:11.510Z,9.40
2019-05-17T20:57:43.986Z,9.33
2019-05-17T21:00:16.450Z,8.40
2019-05-17T21:02:47.797Z,10.40
2019-05-17T21:05:21.007Z,9.60
2019-05-17T21:07:52.360Z,9.37
2019-05-17T21:10:24.340Z,11.60
2019-05-17T21:12:56.155Z,11.87
2019-05-17T21:15:27.747Z,11.90
2019-05-17T21:17:59.132Z,12.33
2019-05-17T21:20:30.438Z,11.10
2019-05-17T21:23:01.749Z,10.90
2019-05-17T21:25:33.445Z,12.07
2019-05-17T21:28:04.777Z,11.03
2019-05-17T21:30:36.660Z,10.43
2019-05-17T21:33:08.359Z,11.17
2019-05-17T21:35:40.084Z,10.93
2019-05-17T21:38:11.846Z,14.73
2019-05-17T21:40:44.234Z,13.60
2019-05-17T21:43:15.629Z,14.40
2019-05-17T21:46:01.134Z,14.03
2019-05-17T21:48:20.827Z,14.73
2019-05-17T21:50:52.638Z,13.43
2019-05-17T21:53:24.345Z,15.83
2019-05-17T21:55:56.509Z,14.13
2019-05-17T21:58:28.184Z,13.87
2019-05-17T22:01:21.418Z,13.47
2019-05-17T22:03:53.292Z,13.23
2019-05-17T22:06:25.153Z,14.80
2019-05-17T22:08:56.847Z,14.67
2019-05-17T22:11:28.588Z,15.40
2019-05-17T22:14:00.506Z,15.63
2019-05-17T22:16:32.097Z,14.83
2019-05-17T22:19:03.535Z,14.77
2019-05-17T22:21:35.089Z,14.40
2019-05-17T22:24:06.951Z,15.37
2019-05-17T22:26:38.408Z,16.97
2019-05-17T22:29:09.814Z,15.80
2019-05-17T22:31:42.074Z,15.13
2019-05-17T22:34:13.448Z,14.50
2019-05-17T22:36:45.339Z,15.90
2019-05-17T22:39:17.084Z,14.07
2019-05-17T22:41:49.267Z,15.60
2019-05-17T22:44:21.130Z,16.27
2019-05-17T22:46:53.820Z,15.90
2019-05-17T22:49:25.560Z,16.60
2019-05-17T22:51:57.266Z,16.13
2019-05-17T22:54:29.084Z,16.70
2019-05-17T22:57:00.852Z,17.50
2019-05-17T22:59:32.544Z,19.33
2019-05-17T23:02:05.694Z,19.50
2019-05-17T23:04:37.467Z,20.00
2019-05-17T23:07:09.224Z,20.07
2019-05-17T23:09:41.092Z,19.27
2019-05-17T23:12:12.897Z,19.17
2019-05-17T23:14:45.022Z,18.80
2019-05-17T23:17:17.094Z,20.33
2019-05-17T23:19:49.143Z,18.43
2019-05-17T23:22:20.908Z,18.37
2019-05-17T23:24:52.708Z,17.47
2019-05-17T23:27:24.313Z,19.43
2019-05-17T23:29:56.073Z,18.77
2019-05-17T23:32:27.976Z,20.30
2019-05-17T23:34:59.768Z,19.10
2019-05-17T23:37:31.535Z,20.07
2019-05-17T23:40:03.578Z,20.03
2019-05-17T23:42:34.959Z,20.77
2019-05-17T23:45:07.461Z,20.03
2019-05-17T23:47:39.273Z,21.17
2019-05-17T23:50:11.945Z,20.67
2019-05-17T23:52:44.812Z,19.83
2019-05-17T23:55:16.545Z,20.03
2019-05-17T23:57:48.260Z,20.20
